createdAt,value
2018-09-17T00:01:23.890Z,5.43
2018-09-17T00:03:53.207Z,5.00
2018-09-17T00:06:22.727Z,4.97
2018-09-17T00:08:53.346Z,5.20
2018-09-17T00:11:23.384Z,5.10
2018-09-17T00:13:53.152Z,5.33
2018-09-17T00:16:22.886Z,5.80
2018-09-17T00:18:53.022Z,4.53
2018-09-17T00:21:22.596Z,4.87
2018-09-17T00:23:52.502Z,5.20
2018-09-17T00:26:22.197Z,6.67
2018-09-17T00:28:51.984Z,5.63
2018-09-17T00:31:21.442Z,5.87
2018-09-17T00:33:51.248Z,6.00
2018-09-17T00:36:21.376Z,5.13
2018-09-17T00:38:50.864Z,4.63
2018-09-17T00:41:20.393Z,5.90
2018-09-17T00:43:49.960Z,5.87
2018-09-17T00:46:19.439Z,5.77
2018-09-17T00:49:03.393Z,6.23
2018-09-17T00:51:32.984Z,5.37
2018-09-17T00:54:02.555Z,5.87
2018-09-17T00:56:32.148Z,5.33
2018-09-17T00:59:01.645Z,6.17
2018-09-17T01:01:31.390Z,7.07
2018-09-17T01:04:01.157Z,5.23
2018-09-17T01:06:31.006Z,6.17
2018-09-17T01:09:00.552Z,4.90
2018-09-17T01:11:30.689Z,4.47
2018-09-17T01:14:00.193Z,5.13
2018-09-17T01:16:29.671Z,6.10
2018-09-17T01:18:59.255Z,6.93
2018-09-17T01:21:28.690Z,6.30
2018-09-17T01:23:58.149Z,6.83
2018-09-17T01:26:27.969Z,6.03
2018-09-17T01:28:57.519Z,6.70
2018-09-17T01:31:27.279Z,5.30
2018-09-17T01:33:56.790Z,5.17
2018-09-17T01:36:26.335Z,5.90
2018-09-17T01:38:55.907Z,5.73
2018-09-17T01:41:25.413Z,6.57
2018-09-17T01:43:54.618Z,6.23
2018-09-17T01:46:24.269Z,5.50
2018-09-17T01:48:53.919Z,6.50
2018-09-17T01:51:23.390Z,6.03
2018-09-17T01:53:55.621Z,7.30
2018-09-17T01:56:25.309Z,6.13
2018-09-17T01:58:54.612Z,6.30
2018-09-17T02:01:24.167Z,6.63
2018-09-17T02:03:54.025Z,6.93
2018-09-17T02:06:23.479Z,7.27
2018-09-17T02:08:53.476Z,6.87
2018-09-17T02:11:23.042Z,6.33
2018-09-17T02:13:52.441Z,6.13
2018-09-17T02:16:22.169Z,7.07
2018-09-17T02:18:51.759Z,5.60
2018-09-17T02:21:21.296Z,7.03
2018-09-17T02:23:50.701Z,7.47
2018-09-17T02:26:20.250Z,6.83
2018-09-17T02:28:49.991Z,6.17
2018-09-17T02:31:19.628Z,6.30
2018-09-17T02:33:49.082Z,6.47
2018-09-17T02:36:18.538Z,6.17
2018-09-17T02:38:48.966Z,6.90
2018-09-17T02:41:18.495Z,6.77
2018-09-17T02:43:48.619Z,7.53
2018-09-17T02:46:18.420Z,5.47
2018-09-17T02:48:47.913Z,7.03
2018-09-17T02:51:17.569Z,6.40
2018-09-17T02:53:47.036Z,6.50
2018-09-17T02:56:16.690Z,6.20
2018-09-17T02:58:46.201Z,6.90
2018-09-17T03:01:15.933Z,6.80
2018-09-17T03:03:45.481Z,6.60
2018-09-17T03:06:15.037Z,5.97
2018-09-17T03:08:44.685Z,6.37
2018-09-17T03:11:14.203Z,7.20
2018-09-17T03:13:44.194Z,5.07
2018-09-17T03:16:13.896Z,4.97
2018-09-17T03:18:50.602Z,7.63
2018-09-17T03:21:20.063Z,5.23
2018-09-17T03:23:49.884Z,6.77
2018-09-17T03:26:19.812Z,7.23
2018-09-17T03:28:50.352Z,7.40
2018-09-17T03:31:20.160Z,7.63
2018-09-17T03:33:49.846Z,7.40
2018-09-17T03:36:19.548Z,7.77
2018-09-17T03:38:49.662Z,7.70
2018-09-17T03:41:20.106Z,8.43
2018-09-17T03:43:53.715Z,8.50
2018-09-17T03:46:23.772Z,8.23
2018-09-17T03:48:53.205Z,7.23
2018-09-17T03:51:22.741Z,9.13
2018-09-17T03:53:52.366Z,7.17
2018-09-17T03:56:21.808Z,7.70
2018-09-17T03:58:51.506Z,7.80
2018-09-17T04:01:20.816Z,8.10
2018-09-17T04:03:50.297Z,8.30
2018-09-17T04:06:19.894Z,8.03
2018-09-17T04:08:49.533Z,8.93
2018-09-17T04:11:19.577Z,8.30
2018-09-17T04:13:48.921Z,9.40
2018-09-17T04:16:18.784Z,8.90
2018-09-17T04:18:48.327Z,9.00
2018-09-17T04:21:18.701Z,9.77
2018-09-17T04:23:48.727Z,9.33
2018-09-17T04:26:18.304Z,9.30
2018-09-17T04:28:47.809Z,8.23
2018-09-17T04:31:17.357Z,9.27
2018-09-17T04:33:48.121Z,8.63
2018-09-17T04:36:17.936Z,5.90
2018-09-17T04:38:47.482Z,8.83
2018-09-17T04:41:17.151Z,6.70
2018-09-17T04:43:46.622Z,9.83
2018-09-17T04:46:16.514Z,8.07
2018-09-17T04:48:46.295Z,8.20
2018-09-17T04:51:16.080Z,9.23
2018-09-17T04:53:45.669Z,9.23
2018-09-17T04:56:15.237Z,9.47
2018-09-17T04:58:44.997Z,9.83
2018-09-17T05:01:14.465Z,9.53
2018-09-17T05:03:43.763Z,9.53
2018-09-17T05:06:13.393Z,7.77
2018-09-17T05:08:42.697Z,8.63
2018-09-17T05:11:12.299Z,9.37
2018-09-17T05:13:42.090Z,10.47
2018-09-17T05:16:11.597Z,10.73
2018-09-17T05:18:41.372Z,10.20
2018-09-17T05:21:10.906Z,10.33
2018-09-17T05:23:40.775Z,10.27
2018-09-17T05:26:10.407Z,9.70
2018-09-17T05:28:39.887Z,9.93
2018-09-17T05:31:09.417Z,10.50
2018-09-17T05:33:39.082Z,6.20
2018-09-17T05:36:08.575Z,10.07
2018-09-17T05:38:37.981Z,10.00
2018-09-17T05:41:07.304Z,9.67
2018-09-17T05:43:36.614Z,9.73
2018-09-17T05:46:08.573Z,8.73
2018-09-17T05:48:37.938Z,9.80
2018-09-17T05:51:07.562Z,9.40
2018-09-17T05:53:37.223Z,9.27
2018-09-17T05:56:06.703Z,9.53
2018-09-17T05:58:36.548Z,9.87
2018-09-17T06:01:06.236Z,8.00
2018-09-17T06:03:35.866Z,8.67
2018-09-17T06:06:05.500Z,9.20
2018-09-17T06:08:34.930Z,8.80
2018-09-17T06:11:04.540Z,8.77
2018-09-17T06:13:34.091Z,10.13
2018-09-17T06:16:04.004Z,8.03
2018-09-17T06:18:33.795Z,10.73
2018-09-17T06:21:03.686Z,9.47
2018-09-17T06:23:33.231Z,8.50
2018-09-17T06:26:03.179Z,9.10
2018-09-17T06:28:33.565Z,9.50
2018-09-17T06:31:03.878Z,8.77
2018-09-17T06:33:33.575Z,8.73
2018-09-17T06:36:02.833Z,9.43
2018-09-17T06:38:32.347Z,9.17
2018-09-17T06:41:02.839Z,8.73
2018-09-17T06:43:32.415Z,8.77
2018-09-17T06:46:01.813Z,8.27
2018-09-17T06:48:31.387Z,8.87
2018-09-17T06:51:01.185Z,8.40
2018-09-17T06:53:30.670Z,8.40
2018-09-17T06:56:00.240Z,8.73
2018-09-17T06:58:29.551Z,7.57
2018-09-17T07:00:59.108Z,7.93
2018-09-17T07:03:28.462Z,8.70
2018-09-17T07:05:58.143Z,8.07
2018-09-17T07:08:27.464Z,7.80
2018-09-17T07:10:56.831Z,7.77
2018-09-17T07:13:27.170Z,8.00
2018-09-17T07:15:58.931Z,7.53
2018-09-17T07:18:28.654Z,7.83
2018-09-17T07:20:58.112Z,8.37
2018-09-17T07:23:28.054Z,7.27
2018-09-17T07:25:57.670Z,7.63
2018-09-17T07:28:27.088Z,8.27
2018-09-17T07:30:56.779Z,7.67
2018-09-17T07:33:26.318Z,6.70
2018-09-17T07:35:56.019Z,6.73
2018-09-17T07:38:25.676Z,7.27
2018-09-17T07:40:55.530Z,7.53
2018-09-17T07:43:25.955Z,7.00
2018-09-17T07:45:55.462Z,6.83
2018-09-17T07:48:25.033Z,6.53
2018-09-17T07:50:54.753Z,5.87
2018-09-17T07:53:24.034Z,6.23
2018-09-17T07:55:53.722Z,6.33
2018-09-17T07:58:23.347Z,6.47
2018-09-17T08:00:52.835Z,7.17
2018-09-17T08:03:22.472Z,6.40
2018-09-17T08:05:52.175Z,7.10
2018-09-17T08:08:21.996Z,6.50
2018-09-17T08:10:51.376Z,5.77
2018-09-17T08:13:20.640Z,6.57
2018-09-17T08:15:50.109Z,6.03
2018-09-17T08:18:21.350Z,6.60
2018-09-17T08:20:51.579Z,5.93
2018-09-17T08:23:21.622Z,6.00
2018-09-17T08:25:50.925Z,6.07
2018-09-17T08:28:20.585Z,6.00
2018-09-17T08:30:50.044Z,5.30
2018-09-17T08:33:19.537Z,6.00
2018-09-17T08:35:48.790Z,5.20
2018-09-17T08:38:18.387Z,5.13
2018-09-17T08:40:47.852Z,6.70
2018-09-17T08:43:17.330Z,5.73
2018-09-17T08:45:46.830Z,6.00
2018-09-17T08:48:16.516Z,5.70
2018-09-17T08:50:45.970Z,5.33
2018-09-17T08:53:15.446Z,5.10
2018-09-17T08:55:45.103Z,5.17
2018-09-17T08:58:19.634Z,5.40
2018-09-17T09:00:58.238Z,4.70
2018-09-17T09:03:33.048Z,5.23
2018-09-17T09:06:08.604Z,5.43
2018-09-17T09:08:38.042Z,5.13
2018-09-17T09:11:12.969Z,4.93
2018-09-17T09:13:47.763Z,4.23
2018-09-17T09:16:17.910Z,4.47
2018-09-17T09:18:47.135Z,3.90
2018-09-17T09:21:16.668Z,4.30
2018-09-17T09:23:46.178Z,4.23
2018-09-17T09:26:15.852Z,4.00
2018-09-17T09:28:45.249Z,3.97
2018-09-17T09:31:14.856Z,3.60
2018-09-17T09:33:44.220Z,4.20
2018-09-17T09:36:13.778Z,3.50
2018-09-17T09:38:43.276Z,3.60
2018-09-17T09:41:12.719Z,3.53
2018-09-17T09:43:42.848Z,3.00
2018-09-17T09:46:12.363Z,3.30
2018-09-17T09:48:43.254Z,4.23
2018-09-17T09:51:12.897Z,3.00
2018-09-17T09:53:42.298Z,4.07
2018-09-17T09:56:11.956Z,2.93
2018-09-17T09:58:41.395Z,3.40
2018-09-17T10:01:16.040Z,4.87
2018-09-17T10:03:45.816Z,3.37
2018-09-17T10:06:15.911Z,3.53
2018-09-17T10:08:50.724Z,3.20
2018-09-17T10:11:25.672Z,3.60
2018-09-17T10:14:00.443Z,3.40
2018-09-17T10:16:30.136Z,3.53
2018-09-17T10:19:05.119Z,3.27
2018-09-17T10:21:34.765Z,3.60
2018-09-17T10:24:04.296Z,3.57
2018-09-17T10:26:33.656Z,3.43
2018-09-17T10:29:02.978Z,3.10
2018-09-17T10:31:32.507Z,3.33
2018-09-17T10:34:01.989Z,3.27
2018-09-17T10:36:31.365Z,3.00
2018-09-17T10:39:01.981Z,2.80
2018-09-17T10:41:31.538Z,3.33
2018-09-17T10:44:01.010Z,3.47
2018-09-17T10:46:30.484Z,2.77
2018-09-17T10:48:59.862Z,2.40
2018-09-17T10:51:29.224Z,2.17
2018-09-17T10:53:58.724Z,2.10
2018-09-17T10:56:28.274Z,2.57
2018-09-17T10:58:57.842Z,3.10
2018-09-17T11:01:27.251Z,3.10
2018-09-17T11:03:56.654Z,2.17
2018-09-17T11:06:26.036Z,2.57
2018-09-17T11:08:55.652Z,2.60
2018-09-17T11:11:25.263Z,2.57
2018-09-17T11:13:54.884Z,2.60
2018-09-17T11:16:27.662Z,1.97
2018-09-17T11:18:57.521Z,2.43
2018-09-17T11:21:26.730Z,2.10
2018-09-17T11:23:56.343Z,2.07
2018-09-17T11:26:25.577Z,2.03
2018-09-17T11:28:55.178Z,2.10
2018-09-17T11:31:24.727Z,2.03
2018-09-17T11:33:54.281Z,2.20
2018-09-17T11:36:23.653Z,2.00
2018-09-17T11:38:53.124Z,1.70
2018-09-17T11:41:22.469Z,2.27
2018-09-17T11:43:51.817Z,2.00
2018-09-17T11:46:21.128Z,1.83
2018-09-17T11:48:50.705Z,2.23
2018-09-17T11:51:20.374Z,2.20
2018-09-17T11:53:49.890Z,2.17
2018-09-17T11:56:19.220Z,2.17
2018-09-17T11:58:52.145Z,2.10
2018-09-17T12:01:27.232Z,1.80
2018-09-17T12:04:01.968Z,2.10
2018-09-17T12:06:37.176Z,2.50
2018-09-17T12:09:09.113Z,1.90
2018-09-17T12:11:38.630Z,1.90
2018-09-17T12:14:08.213Z,2.40
2018-09-17T12:16:38.014Z,2.40
2018-09-17T12:19:07.727Z,2.30
2018-09-17T12:21:40.620Z,2.40
2018-09-17T12:24:10.652Z,2.33
2018-09-17T12:26:40.037Z,2.23
2018-09-17T12:29:10.245Z,1.80
2018-09-17T12:31:40.058Z,1.93
2018-09-17T12:34:09.692Z,2.10
2018-09-17T12:36:39.370Z,1.90
2018-09-17T12:39:09.786Z,1.90
2018-09-17T12:41:39.269Z,2.00
2018-09-17T12:44:08.787Z,2.10
2018-09-17T12:46:38.736Z,1.70
2018-09-17T12:49:08.794Z,1.90
2018-09-17T12:51:38.265Z,1.73
2018-09-17T12:54:07.797Z,1.70
2018-09-17T12:56:39.144Z,2.00
2018-09-17T12:59:09.087Z,1.60
2018-09-17T13:01:38.581Z,1.57
2018-09-17T13:04:11.277Z,1.50
2018-09-17T13:06:41.074Z,1.93
2018-09-17T13:09:11.948Z,1.60
2018-09-17T13:11:41.922Z,1.53
2018-09-17T13:14:11.618Z,1.43
2018-09-17T13:16:41.198Z,1.90
2018-09-17T13:19:12.101Z,2.00
2018-09-17T13:21:42.289Z,1.57
2018-09-17T13:24:11.874Z,1.40
2018-09-17T13:26:41.325Z,1.63
2018-09-17T13:29:11.352Z,1.50
2018-09-17T13:31:41.062Z,1.50
2018-09-17T13:34:10.620Z,1.60
2018-09-17T13:36:39.969Z,1.63
2018-09-17T13:39:09.819Z,2.00
2018-09-17T13:41:39.570Z,1.67
2018-09-17T13:44:09.240Z,1.80
2018-09-17T13:46:38.682Z,1.73
2018-09-17T13:49:08.003Z,1.67
2018-09-17T13:51:37.749Z,1.80
2018-09-17T13:54:07.322Z,1.80
2018-09-17T13:56:36.967Z,1.60
2018-09-17T13:59:06.479Z,1.63
2018-09-17T14:01:36.180Z,2.10
2018-09-17T14:04:05.806Z,1.50
2018-09-17T14:06:38.580Z,1.40
2018-09-17T14:09:10.527Z,1.60
2018-09-17T14:11:40.938Z,1.63
2018-09-17T14:14:10.459Z,1.60
2018-09-17T14:16:39.933Z,1.80
2018-09-17T14:19:09.440Z,1.67
2018-09-17T14:21:39.040Z,1.97
2018-09-17T14:24:08.661Z,2.00
2018-09-17T14:26:38.114Z,1.43
2018-09-17T14:29:07.385Z,1.70
2018-09-17T14:32:40.332Z,1.77
2018-09-17T14:35:09.927Z,1.83
2018-09-17T14:37:39.621Z,1.67
2018-09-17T14:40:09.321Z,1.33
2018-09-17T14:42:38.678Z,1.87
2018-09-17T14:45:08.108Z,1.80
2018-09-17T14:47:37.472Z,1.87
2018-09-17T14:50:06.857Z,1.40
2018-09-17T14:52:36.106Z,1.57
2018-09-17T14:55:05.715Z,1.60
2018-09-17T14:57:35.300Z,1.83
2018-09-17T15:00:04.676Z,1.83
2018-09-17T15:02:34.077Z,1.60
2018-09-17T15:05:04.019Z,1.90
2018-09-17T15:07:33.353Z,2.00
2018-09-17T15:10:02.906Z,1.63
2018-09-17T15:12:32.275Z,1.90
2018-09-17T15:15:01.711Z,1.87
2018-09-17T15:17:31.351Z,1.73
2018-09-17T15:20:00.990Z,1.70
2018-09-17T15:22:30.643Z,2.03
2018-09-17T15:24:59.999Z,1.80
2018-09-17T15:27:29.678Z,2.23
2018-09-17T15:29:59.295Z,1.67
2018-09-17T15:32:33.037Z,2.00
2018-09-17T15:35:02.576Z,2.10
2018-09-17T15:37:32.222Z,2.20
2018-09-17T15:40:02.169Z,2.50
2018-09-17T15:42:31.665Z,2.00
2018-09-17T15:45:01.162Z,2.00
2018-09-17T15:47:30.899Z,2.23
2018-09-17T15:50:00.701Z,2.20
2018-09-17T15:52:30.075Z,2.03
2018-09-17T15:54:59.553Z,2.40
2018-09-17T15:57:28.806Z,2.20
2018-09-17T15:59:58.339Z,2.60
2018-09-17T16:02:29.666Z,2.20
2018-09-17T16:04:59.131Z,2.23
2018-09-17T16:07:28.647Z,2.60
2018-09-17T16:09:58.154Z,2.27
2018-09-17T16:12:27.680Z,2.67
2018-09-17T16:14:57.069Z,2.20
2018-09-17T16:17:26.470Z,2.70
2018-09-17T16:19:56.127Z,2.40
2018-09-17T16:22:25.546Z,2.50
2018-09-17T16:24:55.241Z,2.47
2018-09-17T16:27:24.812Z,2.30
2018-09-17T16:29:54.422Z,2.27
2018-09-17T16:32:23.970Z,2.40
2018-09-17T16:34:53.652Z,2.47
2018-09-17T16:37:23.070Z,2.20
2018-09-17T16:39:52.922Z,2.33
2018-09-17T16:42:22.688Z,2.07
2018-09-17T16:44:52.824Z,3.73
2018-09-17T16:47:22.989Z,3.57
2018-09-17T16:49:52.937Z,3.13
2018-09-17T16:52:22.700Z,3.03
2018-09-17T16:54:52.580Z,2.27
2018-09-17T16:57:22.247Z,2.23
2018-09-17T16:59:51.827Z,2.47
2018-09-17T17:02:21.567Z,2.63
2018-09-17T17:04:51.550Z,2.33
2018-09-17T17:07:21.089Z,2.70
2018-09-17T17:09:50.868Z,2.00
2018-09-17T17:12:20.520Z,2.80
2018-09-17T17:14:50.840Z,2.70
2018-09-17T17:17:20.292Z,2.37
2018-09-17T17:19:50.147Z,2.60
2018-09-17T17:22:22.417Z,2.70
2018-09-17T17:24:52.126Z,2.40
2018-09-17T17:27:21.762Z,2.67
2018-09-17T17:29:51.372Z,2.80
2018-09-17T17:32:20.709Z,2.67
2018-09-17T17:34:50.183Z,2.73
2018-09-17T17:37:19.959Z,2.73
2018-09-17T17:39:49.518Z,3.30
2018-09-17T17:42:18.736Z,2.80
2018-09-17T17:44:48.075Z,2.87
2018-09-17T17:47:17.366Z,3.30
2018-09-17T17:49:46.831Z,2.93
2018-09-17T17:52:16.226Z,3.17
2018-09-17T17:54:46.342Z,3.20
2018-09-17T17:57:15.670Z,3.40
2018-09-17T17:59:44.999Z,3.13
2018-09-17T18:02:14.467Z,3.77
2018-09-17T18:04:43.828Z,3.27
2018-09-17T18:07:13.206Z,3.90
2018-09-17T18:09:42.587Z,3.20
2018-09-17T18:12:11.812Z,3.57
2018-09-17T18:14:41.114Z,3.80
2018-09-17T18:17:10.872Z,4.23
2018-09-17T18:19:40.184Z,4.07
2018-09-17T18:22:09.542Z,5.70
2018-09-17T18:24:39.761Z,4.87
2018-09-17T18:27:09.271Z,5.03
2018-09-17T18:29:38.660Z,4.30
2018-09-17T18:32:08.010Z,4.07
2018-09-17T18:34:37.232Z,4.87
2018-09-17T18:37:06.859Z,4.67
2018-09-17T18:39:36.405Z,5.17
2018-09-17T18:42:06.003Z,4.80
2018-09-17T18:44:35.431Z,5.00
2018-09-17T18:47:05.103Z,4.63
2018-09-17T18:49:34.695Z,5.27
2018-09-17T18:52:04.028Z,6.20
2018-09-17T18:54:33.369Z,6.47
2018-09-17T18:57:03.296Z,7.03
2018-09-17T18:59:32.693Z,7.00
2018-09-17T19:02:02.194Z,6.70
2018-09-17T19:04:31.589Z,5.37
2018-09-17T19:07:01.057Z,5.83
2018-09-17T19:09:35.640Z,5.47
2018-09-17T19:12:05.227Z,5.77
2018-09-17T19:14:39.777Z,5.83
2018-09-17T19:17:14.167Z,6.37
2018-09-17T19:19:43.864Z,5.20
2018-09-17T19:22:18.783Z,5.37
2018-09-17T19:24:48.182Z,6.23
2018-09-17T19:27:18.397Z,7.43
2018-09-17T19:29:48.046Z,7.70
2018-09-17T19:32:17.718Z,7.23
2018-09-17T19:34:47.057Z,7.17
2018-09-17T19:37:23.037Z,5.80
2018-09-17T19:39:57.817Z,5.73
2018-09-17T19:42:27.661Z,7.13
2018-09-17T19:45:02.315Z,6.30
2018-09-17T19:47:31.778Z,6.40
2018-09-17T19:50:03.952Z,7.23
2018-09-17T19:52:33.684Z,7.30
2018-09-17T19:55:03.144Z,6.50
2018-09-17T19:57:38.022Z,8.17
2018-09-17T20:00:08.040Z,6.33
2018-09-17T20:02:37.420Z,7.67
2018-09-17T20:05:12.102Z,6.87
2018-09-17T20:07:41.525Z,6.33
2018-09-17T20:10:14.533Z,7.50
2018-09-17T20:12:44.437Z,7.20
2018-09-17T20:15:13.843Z,6.60
2018-09-17T20:17:43.226Z,6.77
2018-09-17T20:20:12.827Z,6.87
2018-09-17T20:22:42.259Z,5.57
2018-09-17T20:25:11.940Z,5.33
2018-09-17T20:27:41.477Z,6.47
2018-09-17T20:30:11.030Z,5.80
2018-09-17T20:32:40.780Z,5.43
2018-09-17T20:35:10.278Z,6.33
2018-09-17T20:37:39.806Z,5.60
2018-09-17T20:40:09.406Z,5.63
2018-09-17T20:42:38.867Z,5.67
2018-09-17T20:45:08.925Z,6.03
2018-09-17T20:47:38.691Z,4.77
2018-09-17T20:50:11.163Z,6.07
2018-09-17T20:52:41.125Z,5.60
2018-09-17T20:55:10.721Z,6.10
2018-09-17T20:57:40.170Z,5.60
2018-09-17T21:00:10.443Z,5.60
2018-09-17T21:02:40.020Z,5.77
2018-09-17T21:05:09.600Z,5.77
2018-09-17T21:07:39.205Z,6.17
2018-09-17T21:10:08.865Z,5.57
2018-09-17T21:12:38.242Z,5.13
2018-09-17T21:15:08.023Z,5.07
2018-09-17T21:17:37.607Z,4.77
2018-09-17T21:20:06.969Z,6.83
2018-09-17T21:22:36.653Z,4.93
2018-09-17T21:25:06.200Z,5.13
2018-09-17T21:27:35.841Z,4.43
2018-09-17T21:30:05.957Z,5.40
2018-09-17T21:32:35.496Z,4.07
2018-09-17T21:35:05.290Z,3.90
2018-09-17T21:37:34.935Z,4.53
2018-09-17T21:40:04.877Z,4.10
2018-09-17T21:42:35.008Z,4.00
2018-09-17T21:45:05.633Z,4.60
2018-09-17T21:47:35.125Z,3.70
2018-09-17T21:50:04.721Z,4.00
2018-09-17T21:52:34.295Z,3.77
2018-09-17T21:55:04.050Z,3.90
2018-09-17T21:57:34.514Z,3.80
2018-09-17T22:00:04.876Z,3.20
2018-09-17T22:02:34.519Z,3.43
2018-09-17T22:05:04.011Z,4.30
2018-09-17T22:07:33.445Z,3.50
2018-09-17T22:10:03.224Z,3.97
2018-09-17T22:12:32.749Z,3.27
2018-09-17T22:15:02.117Z,3.70
2018-09-17T22:17:31.642Z,3.60
2018-09-17T22:20:01.074Z,3.47
2018-09-17T22:22:30.844Z,3.30
2018-09-17T22:25:00.443Z,2.97
2018-09-17T22:27:29.927Z,3.93
2018-09-17T22:29:59.269Z,3.80
2018-09-17T22:32:28.761Z,3.27
2018-09-17T22:34:58.376Z,3.07
2018-09-17T22:37:27.739Z,2.50
2018-09-17T22:39:57.066Z,2.80
2018-09-17T22:42:26.776Z,3.23
2018-09-17T22:44:56.080Z,3.67
2018-09-17T22:47:25.612Z,3.10
2018-09-17T22:49:56.129Z,3.57
2018-09-17T22:52:25.697Z,3.10
2018-09-17T22:54:55.117Z,3.50
2018-09-17T22:57:24.628Z,3.00
2018-09-17T22:59:54.166Z,2.93
2018-09-17T23:02:27.408Z,2.97
2018-09-17T23:04:57.039Z,3.40
2018-09-17T23:07:26.773Z,3.13
2018-09-17T23:09:56.282Z,3.17
2018-09-17T23:12:27.235Z,3.37
2018-09-17T23:14:56.533Z,2.87
2018-09-17T23:17:26.396Z,3.37
2018-09-17T23:19:55.813Z,3.33
2018-09-17T23:22:25.269Z,3.00
2018-09-17T23:24:54.783Z,2.73
2018-09-17T23:27:24.377Z,2.67
2018-09-17T23:29:53.843Z,2.93
2018-09-17T23:32:23.254Z,3.37
2018-09-17T23:34:52.827Z,3.10
2018-09-17T23:37:22.569Z,2.77
2018-09-17T23:39:52.070Z,3.00
2018-09-17T23:42:21.506Z,3.37
2018-09-17T23:44:50.757Z,2.60
2018-09-17T23:47:20.221Z,3.50
2018-09-17T23:49:49.579Z,3.20
2018-09-17T23:52:19.392Z,3.80
2018-09-17T23:54:48.934Z,3.60
2018-09-17T23:57:18.406Z,3.30
2018-09-17T23:59:47.710Z,3.13
